Pierceton, IN (46562)

8:36 PM EST on February 09, 2016 (GMT -0500)
Barbee Kuhn Point | | Change Station
CLOSE
Current Station
Personal Weather Station
Location: Pierceton, IN
Elevation: 853 ft
Nearby Weather Stations

Elev 853 ft 41.28 °N, 85.70 °W | Updated 7 seconds ago

Overcast
Overcast
19.2 °F
Feels Like 7 °F
N
12.0
Wind Variable Wind from WNW
Gusts 21.0 mph

Today
High -- | Low -- °F
--% Chance of Precip.
Yesterday
High -- | Low -- °F
Precip. -- in
Pressure 29.85 in
Visibility 10.0 miles
Clouds Scattered Clouds 1700 ft
Scattered Clouds 2500 ft
Overcast 3900 ft
Windchill 7 °F
Dew Point 15 °F
Humidity 84%
Rainfall 0.00 in
Snow Depth Not available.
7:45 AM 6:08 PM
Waxing Crescent, 3% visible
METAR KASW 100115Z AUTO 27014G19KT 10SM -SN SCT017 SCT025 OVC039 M07/M10 A2985 RMK AO2
Pressure 29.85 in
Visibility 10.0 miles
Clouds Scattered Clouds 1700 ft
Scattered Clouds 2500 ft
Overcast 3900 ft
Windchill 7 °F
Dew Point 15 °F
Humidity 84%
Rainfall 0.00 in
Snow Depth Not available.
7:45 AM 6:08 PM
Waxing Crescent, 3% visible
METAR KASW 100115Z AUTO 27014G19KT 10SM -SN SCT017 SCT025 OVC039 M07/M10 A2985 RMK AO2

10-Day Weather Forecast

Almanac

Astronomy

Feb. 09, 2016 Rise Set
Actual Time
Civil Twilight
Nautical Twilight
Astronomical Twilight
Moon
Length of Visible Light
Length of Day
Tomorrow will be .
, % of the Moon is Illuminated

Today's Extremes

State Highs State Lows

Community

WunderPhotos

Upload Photos

1,891,760 photos uploaded!

WunderBlog® & News

Nearby

Air Quality

  Air Quality AQ Index Pollutant
Not available.

Snow Depth

Station Depth Elevation

Earthquake Activity

City Distance Mag. Time & Date
Minimum magnitude displayed is 2.5.

Coastal Water Temperatures

Place Temperature

Stations

Nearby Weather Stations

Station Location Temp. Windchill Dew Point Humidity Wind Precip. Elev Updated Type
                   

Watches & Warnings

There are currently no watches in effect.